createdAt,value
2018-01-31T01:52:21.110Z,61.87
2018-01-31T01:54:41.853Z,62.01
2018-01-31T01:57:08.175Z,62.31
2018-01-31T01:59:34.483Z,62.10
2018-01-31T02:02:00.755Z,61.65
2018-01-31T02:04:26.983Z,61.78
2018-01-31T02:06:53.299Z,61.49
2018-01-31T02:09:19.547Z,62.20
2018-01-31T02:11:45.877Z,62.33
2018-01-31T02:14:12.134Z,62.32
2018-01-31T02:16:38.415Z,62.38
2018-01-31T02:19:04.665Z,62.58
2018-01-31T02:21:30.981Z,62.38
2018-01-31T02:23:57.305Z,62.21
2018-01-31T02:26:23.548Z,62.20
2018-01-31T02:28:49.862Z,61.96
2018-01-31T02:31:16.179Z,62.23
2018-01-31T02:33:42.448Z,62.43
2018-01-31T02:36:08.725Z,62.13
2018-01-31T02:38:53.593Z,61.93
2018-01-31T02:41:19.867Z,61.89
2018-01-31T02:43:46.131Z,61.28
2018-01-31T02:46:13.165Z,61.00
2018-01-31T02:48:40.191Z,60.73
2018-01-31T02:51:06.467Z,60.43
2018-01-31T02:53:32.768Z,60.54
2018-01-31T02:55:59.814Z,60.18
2018-01-31T02:58:26.086Z,60.16
2018-01-31T03:00:52.358Z,59.90
2018-01-31T03:03:18.609Z,59.88
2018-01-31T03:05:44.898Z,59.79
2018-01-31T03:08:11.179Z,59.67
2018-01-31T03:10:38.188Z,59.70
2018-01-31T03:13:04.498Z,59.41
2018-01-31T03:15:30.770Z,59.03
2018-01-31T03:17:57.110Z,58.64
2018-01-31T03:20:24.201Z,58.81
2018-01-31T03:22:50.570Z,58.74
2018-01-31T03:25:17.042Z,58.52
2018-01-31T03:27:43.313Z,58.20
2018-01-31T03:30:09.637Z,58.08
2018-01-31T03:32:36.013Z,57.88
2018-01-31T03:35:03.101Z,57.79
2018-01-31T03:37:29.391Z,57.62
2018-01-31T03:39:56.419Z,57.62
2018-01-31T03:42:22.649Z,57.43
2018-01-31T03:44:48.885Z,57.45
2018-01-31T03:47:15.181Z,57.14
2018-01-31T03:49:41.496Z,57.61
2018-01-31T03:52:07.771Z,58.06
2018-01-31T03:54:34.032Z,58.60
2018-01-31T03:57:01.030Z,58.88
2018-01-31T03:59:27.257Z,58.57
2018-01-31T04:01:53.508Z,58.12
2018-01-31T04:04:19.735Z,58.14
2018-01-31T04:06:47.466Z,58.02
2018-01-31T04:09:13.730Z,57.93
2018-01-31T04:11:40.034Z,57.03
2018-01-31T04:14:06.301Z,56.89
2018-01-31T04:16:32.589Z,56.86
2018-01-31T04:18:58.880Z,56.36
2018-01-31T04:21:25.962Z,56.17
2018-01-31T04:23:52.293Z,55.95
2018-01-31T04:26:18.583Z,55.76
2018-01-31T04:28:45.568Z,55.80
2018-01-31T04:31:11.817Z,55.62
2018-01-31T04:33:38.067Z,56.05
2018-01-31T04:36:04.319Z,56.00
2018-01-31T04:38:30.728Z,56.31
2018-01-31T04:40:57.399Z,56.59
2018-01-31T04:43:23.651Z,56.85
2018-01-31T04:45:49.915Z,57.00
2018-01-31T04:48:16.143Z,57.11
2018-01-31T04:50:42.457Z,57.50
2018-01-31T04:53:08.731Z,57.08
2018-01-31T04:55:35.788Z,57.17
2018-01-31T04:58:02.813Z,57.06
2018-01-31T05:00:29.127Z,57.19
2018-01-31T05:02:55.431Z,57.14
2018-01-31T05:05:21.712Z,57.28
2018-01-31T05:07:47.968Z,57.29
2018-01-31T05:10:14.232Z,57.09
2018-01-31T05:12:40.502Z,57.41
2018-01-31T05:15:07.492Z,56.96
2018-01-31T05:17:33.843Z,57.00
2018-01-31T05:20:00.105Z,56.89
2018-01-31T05:22:27.136Z,57.44
2018-01-31T05:24:53.513Z,57.43
2018-01-31T05:27:19.778Z,57.21
2018-01-31T05:29:46.255Z,57.25
2018-01-31T05:32:12.507Z,57.21
2018-01-31T05:34:39.594Z,57.19
2018-01-31T05:37:05.870Z,57.15
2018-01-31T05:39:32.863Z,57.39
2018-01-31T05:41:59.201Z,57.57
2018-01-31T05:44:25.515Z,57.91
2018-01-31T05:46:51.814Z,57.86
2018-01-31T05:49:18.810Z,57.86
2018-01-31T05:51:45.126Z,58.35
2018-01-31T05:54:11.578Z,58.58
2018-01-31T05:56:37.944Z,58.55
2018-01-31T05:59:04.296Z,58.80
2018-01-31T06:01:30.566Z,58.81
2018-01-31T06:03:56.810Z,58.72
2018-01-31T06:06:23.088Z,58.43
2018-01-31T06:08:50.108Z,59.11
2018-01-31T06:11:16.452Z,58.98
2018-01-31T06:13:43.516Z,59.04
2018-01-31T06:16:09.872Z,59.53
2018-01-31T06:18:36.180Z,59.39
2018-01-31T06:21:02.511Z,59.59
2018-01-31T06:23:28.779Z,59.45
2018-01-31T06:25:55.078Z,59.26
2018-01-31T06:28:21.367Z,59.24
2018-01-31T06:30:52.241Z,59.33
2018-01-31T06:33:18.586Z,59.32
2018-01-31T06:35:44.865Z,59.14
2018-01-31T06:38:11.223Z,59.00
2018-01-31T06:40:38.317Z,58.98
2018-01-31T06:43:04.578Z,58.67
2018-01-31T06:45:31.632Z,58.17
2018-01-31T06:47:57.900Z,58.31
2018-01-31T06:50:24.152Z,58.21
2018-01-31T06:52:50.726Z,57.80
2018-01-31T06:55:17.290Z,57.67
2018-01-31T06:57:43.634Z,57.36
2018-01-31T07:00:09.894Z,56.94
2018-01-31T07:02:37.161Z,56.48
2018-01-31T07:05:03.431Z,56.30
2018-01-31T07:07:29.709Z,56.44
2018-01-31T07:09:56.011Z,55.80
2018-01-31T07:12:22.281Z,55.80
2018-01-31T07:14:48.533Z,55.79
2018-01-31T07:17:14.845Z,55.08
2018-01-31T07:19:41.113Z,55.43
2018-01-31T07:22:08.140Z,54.96
2018-01-31T07:24:34.488Z,54.70
2018-01-31T07:27:01.528Z,54.50
2018-01-31T07:29:28.614Z,54.92
2018-01-31T07:31:54.983Z,54.97
2018-01-31T07:34:21.544Z,54.76
2018-01-31T07:36:48.048Z,54.23
2018-01-31T07:39:14.406Z,54.21
2018-01-31T07:41:41.976Z,55.45
2018-01-31T07:44:08.943Z,55.39
2018-01-31T07:46:35.267Z,55.27
2018-01-31T07:49:01.789Z,55.08
2018-01-31T07:51:28.835Z,54.50
2018-01-31T07:53:55.887Z,54.73
2018-01-31T07:56:22.216Z,54.56
2018-01-31T07:58:49.203Z,55.80
2018-01-31T08:01:15.478Z,55.53
2018-01-31T08:03:41.698Z,56.13
2018-01-31T08:06:07.998Z,56.85
2018-01-31T08:08:34.280Z,57.09
2018-01-31T08:11:01.300Z,57.10
2018-01-31T08:13:27.538Z,57.69
2018-01-31T08:15:53.796Z,57.10
2018-01-31T08:18:20.808Z,56.64
2018-01-31T08:20:47.090Z,56.37
2018-01-31T08:23:13.326Z,55.82
2018-01-31T08:25:39.695Z,56.12
2018-01-31T08:28:05.958Z,55.17
2018-01-31T08:30:32.965Z,54.88
2018-01-31T08:32:59.440Z,54.53
2018-01-31T08:35:25.709Z,54.16
2018-01-31T08:37:51.975Z,53.54
2018-01-31T08:40:18.307Z,53.07
2018-01-31T08:42:44.564Z,53.01
2018-01-31T08:45:11.587Z,53.00
2018-01-31T08:47:37.843Z,52.73
2018-01-31T08:50:04.138Z,52.39
2018-01-31T08:52:30.381Z,52.69
2018-01-31T08:54:56.664Z,53.07
2018-01-31T08:57:22.919Z,52.91
2018-01-31T08:59:49.207Z,52.28
2018-01-31T09:02:15.532Z,52.62
2018-01-31T09:04:41.814Z,51.53
2018-01-31T09:07:08.096Z,52.74
2018-01-31T09:09:34.390Z,53.96
2018-01-31T09:12:00.660Z,54.35
2018-01-31T09:14:26.930Z,54.51
2018-01-31T09:16:53.180Z,56.13
2018-01-31T09:19:19.504Z,57.33
2018-01-31T09:21:45.750Z,58.95
2018-01-31T09:24:12.812Z,59.14
2018-01-31T09:26:39.123Z,60.66
2018-01-31T09:29:06.196Z,59.94
2018-01-31T09:31:32.515Z,59.89
2018-01-31T09:33:59.557Z,58.60
2018-01-31T09:36:26.585Z,58.99
2018-01-31T09:38:52.881Z,59.43
2018-01-31T09:41:19.167Z,58.45
2018-01-31T09:43:46.188Z,59.18
2018-01-31T09:46:13.955Z,58.98
2018-01-31T09:48:40.308Z,59.51
2018-01-31T09:51:07.325Z,58.98
2018-01-31T09:53:33.629Z,58.33
2018-01-31T09:55:59.917Z,58.42
2018-01-31T09:58:26.971Z,57.39
2018-01-31T10:00:54.017Z,57.71
2018-01-31T10:03:21.158Z,58.18
2018-01-31T10:05:47.503Z,56.89
2018-01-31T10:08:14.545Z,56.81
2018-01-31T10:10:42.548Z,56.09
2018-01-31T10:13:08.819Z,55.32
2018-01-31T10:15:35.059Z,54.21
2018-01-31T10:18:01.407Z,54.12
2018-01-31T10:20:28.221Z,54.20
2018-01-31T10:22:54.483Z,54.79
2018-01-31T10:25:21.460Z,54.11
2018-01-31T10:27:47.723Z,54.28
2018-01-31T10:30:13.954Z,53.91
2018-01-31T10:32:40.256Z,54.37
2018-01-31T10:35:06.558Z,55.65
2018-01-31T10:37:32.844Z,57.31
2018-01-31T10:39:59.120Z,57.96
2018-01-31T10:42:25.630Z,57.69
2018-01-31T10:44:51.984Z,57.18
2018-01-31T10:47:19.190Z,58.41
2018-01-31T10:49:45.511Z,60.94
2018-01-31T10:52:11.774Z,62.73
2018-01-31T10:57:28.966Z,61.37
2018-01-31T10:59:32.885Z,61.58
2018-01-31T11:01:59.227Z,62.24
2018-01-31T11:04:25.545Z,61.37
2018-01-31T11:06:51.897Z,61.63
2018-01-31T11:09:18.170Z,60.27
2018-01-31T11:11:44.430Z,60.05
2018-01-31T11:14:10.711Z,58.98
2018-01-31T11:16:37.733Z,58.74
2018-01-31T11:19:04.008Z,58.39
2018-01-31T11:21:30.265Z,57.87
2018-01-31T11:23:56.534Z,57.01
2018-01-31T11:26:22.805Z,55.79
2018-01-31T11:28:49.051Z,56.34
2018-01-31T11:31:15.372Z,55.79
2018-01-31T11:33:41.638Z,55.29
2018-01-31T11:36:07.904Z,53.40
2018-01-31T11:38:34.934Z,52.35
2018-01-31T11:41:02.010Z,51.33
2018-01-31T11:43:28.287Z,50.60
2018-01-31T11:45:54.593Z,50.79
2018-01-31T11:48:20.883Z,54.24
2018-01-31T11:50:47.191Z,54.18
2018-01-31T11:53:13.525Z,52.82
2018-01-31T11:55:39.787Z,53.59
2018-01-31T11:58:06.093Z,53.50
2018-01-31T12:00:46.929Z,52.64
2018-01-31T12:03:13.432Z,53.42
2018-01-31T12:05:39.975Z,54.23
2018-01-31T12:08:06.265Z,55.29
2018-01-31T12:10:41.361Z,56.01
2018-01-31T12:13:26.146Z,57.63
2018-01-31T12:16:11.023Z,56.83
2018-01-31T12:18:56.051Z,56.86
2018-01-31T12:21:42.027Z,56.37
2018-01-31T12:24:26.919Z,54.29
2018-01-31T12:30:23.228Z,50.59
2018-01-31T12:33:08.932Z,52.28
2018-01-31T12:35:53.946Z,55.61
2018-01-31T12:38:38.884Z,56.88
2018-01-31T12:41:05.020Z,57.89
2018-01-31T12:43:31.270Z,58.58
2018-01-31T12:49:26.319Z,58.98
2018-01-31T12:52:09.902Z,59.28
2018-01-31T12:54:54.881Z,59.93
2018-01-31T12:57:30.174Z,60.05
2018-01-31T13:00:15.059Z,59.26
2018-01-31T13:03:07.441Z,60.22
2018-01-31T13:09:06.253Z,59.43
2018-01-31T13:11:51.120Z,59.84
2018-01-31T13:14:35.931Z,59.98
2018-01-31T13:17:20.892Z,60.20
2018-01-31T13:20:06.473Z,60.05
2018-01-31T13:22:54.826Z,59.50
2018-01-31T13:25:40.385Z,59.27
2018-01-31T13:28:31.495Z,59.76
2018-01-31T13:31:21.351Z,59.99
2018-01-31T13:34:06.178Z,60.80
2018-01-31T13:36:51.020Z,61.81
2018-01-31T13:39:35.960Z,61.33
2018-01-31T13:42:27.151Z,61.57
2018-01-31T13:45:12.068Z,61.49
2018-01-31T13:47:57.861Z,60.67
2018-01-31T13:53:59.010Z,60.10
2018-01-31T13:56:44.075Z,59.36
2018-01-31T13:59:29.020Z,59.12
2018-01-31T14:02:14.118Z,59.34
2018-01-31T14:04:59.071Z,58.68
2018-01-31T14:07:43.948Z,58.37
2018-01-31T14:10:28.795Z,57.39
2018-01-31T14:16:26.529Z,58.31
2018-01-31T14:19:12.094Z,58.37
2018-01-31T14:21:57.043Z,59.03
2018-01-31T14:24:41.992Z,58.61
2018-01-31T14:27:26.914Z,58.98
2018-01-31T14:30:11.916Z,58.65
2018-01-31T14:32:56.934Z,61.18
2018-01-31T14:35:41.945Z,60.59
2018-01-31T14:38:08.111Z,60.35
2018-01-31T14:40:34.237Z,60.52
2018-01-31T14:43:00.364Z,60.96
2018-01-31T14:45:26.615Z,60.34
2018-01-31T14:47:52.703Z,60.48
2018-01-31T14:50:18.814Z,61.14
2018-01-31T14:52:44.913Z,61.59
2018-01-31T14:55:11.773Z,62.50
2018-01-31T14:57:37.885Z,62.97
2018-01-31T15:00:05.908Z,63.40
2018-01-31T15:02:32.054Z,63.18
2018-01-31T15:04:58.160Z,64.95
2018-01-31T15:07:24.306Z,64.79
2018-01-31T15:09:50.442Z,65.00
2018-01-31T15:12:16.666Z,64.83
2018-01-31T15:14:42.810Z,65.10
2018-01-31T15:17:09.664Z,64.21
2018-01-31T15:19:36.543Z,65.37
2018-01-31T15:22:03.717Z,65.79
2018-01-31T15:24:29.895Z,66.11
2018-01-31T15:26:56.041Z,65.75
2018-01-31T15:29:22.193Z,65.48
2018-01-31T15:31:48.335Z,65.96
2018-01-31T15:34:14.465Z,66.73
2018-01-31T15:36:40.629Z,66.37
2018-01-31T15:39:07.475Z,66.36
2018-01-31T15:41:34.328Z,65.97
2018-01-31T15:44:00.462Z,65.56
2018-01-31T15:46:26.637Z,65.02
2018-01-31T15:48:52.725Z,64.68
2018-01-31T15:51:18.863Z,64.21
2018-01-31T15:53:44.992Z,64.61
2018-01-31T15:56:11.105Z,64.22
2018-01-31T15:58:37.261Z,63.42
2018-01-31T16:01:03.428Z,63.08
2018-01-31T16:03:29.576Z,62.39
2018-01-31T16:05:55.722Z,62.26
2018-01-31T16:08:21.957Z,62.37
2018-01-31T16:10:48.143Z,61.27
2018-01-31T16:13:14.334Z,61.77
2018-01-31T16:15:40.564Z,61.35
2018-01-31T16:18:06.818Z,61.54
2018-01-31T16:20:47.276Z,61.70
2018-01-31T16:23:14.381Z,61.99
2018-01-31T16:25:40.716Z,61.66
2018-01-31T16:28:25.761Z,61.08
2018-01-31T16:30:52.028Z,61.49
2018-01-31T16:33:27.573Z,61.51
2018-01-31T16:35:53.829Z,60.96
2018-01-31T16:38:20.199Z,60.63
2018-01-31T16:40:46.493Z,61.10
2018-01-31T16:43:13.664Z,61.15
2018-01-31T16:45:39.933Z,61.00
2018-01-31T16:48:07.023Z,60.59
2018-01-31T16:50:34.026Z,60.54
2018-01-31T16:53:00.308Z,60.00
2018-01-31T16:55:27.412Z,60.29
2018-01-31T16:57:53.726Z,60.33
2018-01-31T17:00:19.993Z,60.58
2018-01-31T17:02:46.366Z,62.32
2018-01-31T17:05:12.712Z,62.79
2018-01-31T17:07:39.016Z,61.75
2018-01-31T17:10:06.126Z,62.64
2018-01-31T17:12:33.189Z,61.52
2018-01-31T17:14:59.461Z,61.61
2018-01-31T17:17:25.927Z,60.99
2018-01-31T17:19:53.125Z,60.57
2018-01-31T17:22:19.507Z,60.71
2018-01-31T17:24:45.844Z,60.15
2018-01-31T17:29:39.051Z,60.28
2018-01-31T17:32:05.393Z,59.95
2018-01-31T17:34:32.454Z,60.09
2018-01-31T17:36:59.548Z,60.55
2018-01-31T17:39:25.996Z,60.18
2018-01-31T17:41:52.344Z,60.00
2018-01-31T17:44:18.644Z,59.71
2018-01-31T17:46:44.976Z,59.84
2018-01-31T17:49:11.266Z,60.40
2018-01-31T17:51:38.386Z,60.57
2018-01-31T17:54:04.712Z,60.80
2018-01-31T17:56:30.980Z,61.11
2018-01-31T17:58:57.430Z,61.15
2018-01-31T18:01:23.812Z,60.77
2018-01-31T18:03:50.180Z,60.57
2018-01-31T18:06:16.585Z,60.64
2018-01-31T18:08:43.671Z,60.82
2018-01-31T18:11:09.959Z,60.94
2018-01-31T18:13:36.395Z,60.88
2018-01-31T18:16:02.747Z,60.32
2018-01-31T18:18:29.103Z,60.15
2018-01-31T18:20:55.427Z,60.20
2018-01-31T18:23:21.825Z,59.91
2018-01-31T18:25:48.965Z,60.13
2018-01-31T18:28:15.394Z,59.67
2018-01-31T18:30:42.103Z,59.52
2018-01-31T18:33:08.668Z,59.70
2018-01-31T18:35:34.982Z,59.51
2018-01-31T18:38:01.250Z,59.74
2018-01-31T18:40:28.292Z,59.96
2018-01-31T18:42:55.461Z,59.60
2018-01-31T18:45:22.521Z,59.99
2018-01-31T18:47:48.860Z,59.81
2018-01-31T18:50:15.250Z,60.13
2018-01-31T18:52:41.671Z,59.75
2018-01-31T18:55:08.009Z,59.63
2018-01-31T18:57:34.405Z,59.68
2018-01-31T19:00:00.772Z,59.58
2018-01-31T19:02:27.068Z,59.86
2018-01-31T19:04:53.426Z,59.71
2018-01-31T19:07:20.019Z,59.99
2018-01-31T19:09:46.338Z,60.32
2018-01-31T19:12:12.697Z,60.79
2018-01-31T19:14:38.989Z,60.24
2018-01-31T19:17:06.074Z,60.49
2018-01-31T19:19:32.474Z,60.50
2018-01-31T19:21:59.032Z,60.67
2018-01-31T19:24:25.368Z,61.40
2018-01-31T19:26:58.643Z,61.03
2018-01-31T19:29:25.111Z,61.60
2018-01-31T19:31:51.451Z,62.08
2018-01-31T19:34:17.713Z,62.47
2018-01-31T19:36:44.331Z,62.54
2018-01-31T19:39:11.516Z,63.55
2018-01-31T19:41:38.564Z,63.88
2018-01-31T19:44:05.826Z,64.11
2018-01-31T19:46:32.278Z,64.19
2018-01-31T19:48:58.590Z,64.42
2018-01-31T19:51:24.948Z,64.83
2018-01-31T19:53:51.291Z,65.30
2018-01-31T19:56:17.665Z,66.71
2018-01-31T19:58:44.063Z,67.89
2018-01-31T20:01:10.497Z,67.62
2018-01-31T20:03:36.824Z,68.69
2018-01-31T20:06:04.396Z,68.85
2018-01-31T20:08:30.779Z,69.58
2018-01-31T20:10:57.105Z,69.30
2018-01-31T20:13:23.537Z,69.20
2018-01-31T20:15:49.879Z,69.31
2018-01-31T20:18:21.314Z,69.97
2018-01-31T20:20:48.421Z,69.53
2018-01-31T20:23:14.720Z,70.10
2018-01-31T20:25:41.009Z,69.97
2018-01-31T20:28:07.347Z,70.97
2018-01-31T20:30:34.551Z,71.41
2018-01-31T20:33:00.863Z,70.98
2018-01-31T20:35:27.149Z,70.56
2018-01-31T20:37:54.393Z,70.32
2018-01-31T20:40:20.765Z,70.31
2018-01-31T20:42:47.155Z,69.19
2018-01-31T20:45:13.575Z,70.47
2018-01-31T20:47:39.955Z,70.63
2018-01-31T20:50:06.997Z,68.94
2018-01-31T20:52:34.027Z,69.03
2018-01-31T20:55:00.305Z,68.84
2018-01-31T20:57:26.612Z,68.12
2018-01-31T20:59:52.981Z,68.34
2018-01-31T21:02:19.403Z,68.71
2018-01-31T21:04:45.800Z,69.35
2018-01-31T21:07:14.023Z,69.28
2018-01-31T21:09:40.273Z,68.52
2018-01-31T21:12:06.563Z,67.76
2018-01-31T21:14:33.032Z,68.28
2018-01-31T21:16:59.300Z,68.73
2018-01-31T21:19:26.411Z,68.51
2018-01-31T21:21:52.731Z,68.87
2018-01-31T21:24:19.073Z,68.22
2018-01-31T21:26:45.500Z,68.24
2018-01-31T21:29:11.772Z,67.54
2018-01-31T21:31:38.788Z,68.35
2018-01-31T21:34:05.120Z,68.59
2018-01-31T21:36:31.379Z,68.38
2018-01-31T21:38:57.677Z,67.99
2018-01-31T21:41:23.927Z,67.83
2018-01-31T21:43:50.248Z,67.51
2018-01-31T21:46:16.534Z,67.57
2018-01-31T21:48:42.858Z,67.21
2018-01-31T21:51:09.848Z,67.22
2018-01-31T21:53:36.280Z,66.58
2018-01-31T21:56:02.528Z,66.77
2018-01-31T21:58:28.905Z,67.16
2018-01-31T22:00:55.176Z,67.25
2018-01-31T22:03:22.221Z,67.62
2018-01-31T22:05:48.519Z,67.37
2018-01-31T22:08:14.776Z,66.37
2018-01-31T22:10:41.080Z,66.52
2018-01-31T22:13:07.336Z,66.31
2018-01-31T22:15:33.601Z,66.72
2018-01-31T22:18:00.621Z,66.57
2018-01-31T22:20:26.879Z,66.40
2018-01-31T22:22:53.893Z,66.87
2018-01-31T22:25:20.161Z,66.80
2018-01-31T22:27:47.415Z,66.89
2018-01-31T22:30:14.511Z,67.04
2018-01-31T22:32:40.828Z,67.14
2018-01-31T22:35:07.087Z,66.78
2018-01-31T22:37:33.371Z,66.70
2018-01-31T22:39:59.643Z,66.34
2018-01-31T22:42:25.891Z,65.12
2018-01-31T22:44:52.184Z,65.62
2018-01-31T22:47:18.440Z,65.45
2018-01-31T22:49:44.752Z,66.08
2018-01-31T22:52:10.992Z,65.68
2018-01-31T22:54:37.290Z,65.48
2018-01-31T22:57:03.566Z,64.41
2018-01-31T22:59:30.632Z,65.76
2018-01-31T23:01:57.640Z,66.08
2018-01-31T23:04:23.908Z,65.89
2018-01-31T23:06:50.950Z,66.24
2018-01-31T23:09:17.939Z,65.64
2018-01-31T23:11:44.203Z,65.26
2018-01-31T23:14:16.780Z,64.04
2018-01-31T23:16:43.068Z,65.12
2018-01-31T23:19:16.289Z,65.17
2018-01-31T23:21:42.653Z,65.57
2018-01-31T23:24:09.662Z,65.09
2018-01-31T23:26:35.932Z,64.46
2018-01-31T23:29:02.244Z,64.63
2018-01-31T23:31:28.501Z,64.20
2018-01-31T23:33:54.747Z,63.86
2018-01-31T23:36:21.786Z,64.11
2018-01-31T23:38:48.756Z,64.24
2018-01-31T23:41:14.994Z,64.63
2018-01-31T23:43:41.300Z,64.61
2018-01-31T23:46:08.320Z,63.83
2018-01-31T23:48:34.625Z,63.95
2018-01-31T23:51:00.863Z,63.86
2018-01-31T23:53:27.132Z,64.96
2018-01-31T23:55:54.131Z,64.45
2018-01-31T23:58:20.399Z,63.72
